Time;durP1;ratioP1;P1;durP2;ratioP2;P2;SDS_P1;SDS_P2;PMS_P1;PMS_P2;Temp;Humidity;BMP_temperature;BMP_pressure;BME280_temperature;BME280_humidity;BME280_pressure;Samples;Min_cycle;Max_cycle;Signal;HPM_P1;HPM_P2
2021/05/22 09:15:48;;;;;;;5.57;1.35;;;9.30;90.00;;;;;;5076020;28;20343;-80
2021/05/22 09:18:19;;;;;;;6.47;1.65;;;9.30;91.70;;;;;;5043609;27;20406;-80
2021/05/22 09:20:59;;;;;;;4.72;1.40;;;9.20;91.10;;;;;;5042756;28;20382;-81
2021/05/22 09:23:29;;;;;;;6.18;1.40;;;9.30;91.60;;;;;;5043494;28;20395;-80
2021/05/22 09:25:59;;;;;;;4.93;1.55;;;9.20;91.00;;;;;;5044279;27;20382;-81
2021/05/22 09:28:32;;;;;;;4.70;1.70;;;9.20;90.90;;;;;;5041538;28;20422;-80
2021/05/22 09:30:59;;;;;;;5.68;1.73;;;9.30;91.00;;;;;;5044334;28;20609;-81
2021/05/22 09:33:28;;;;;;;7.40;1.75;;;9.30;91.90;;;;;;5042866;28;20433;-80
2021/05/22 09:35:59;;;;;;;6.90;1.38;;;9.30;91.80;;;;;;5043022;28;20931;-80
2021/05/22 09:38:38;;;;;;;6.72;1.80;;;9.40;92.40;;;;;;5042251;28;20391;-80
2021/05/22 09:41:28;;;;;;;8.88;1.48;;;9.30;92.00;;;;;;5043109;28;20387;-78
2021/05/22 09:44:12;;;;;;;9.57;1.80;;;9.30;92.40;;;;;;5043921;28;20747;-81
2021/05/22 09:47:03;;;;;;;4.90;1.20;;;9.30;92.20;;;;;;5043649;28;20488;-82
2021/05/22 09:49:34;;;;;;;5.47;1.63;;;9.30;92.00;;;;;;5041074;28;20387;-80
2021/05/22 09:52:16;;;;;;;3.35;1.17;;;9.30;91.40;;;;;;5043588;28;20451;-81
2021/05/22 09:54:42;;;;;;;7.63;1.30;;;9.40;91.00;;;;;;5042704;28;20905;-81
2021/05/22 09:57:09;;;;;;;6.20;1.92;;;9.50;91.10;;;;;;5043186;28;20383;-78
2021/05/22 09:59:35;;;;;;;5.78;1.58;;;9.60;90.40;;;;;;5043918;28;20427;-80
2021/05/22 10:02:01;;;;;;;8.27;1.73;;;9.80;90.60;;;;;;5041941;28;20390;-81
2021/05/22 10:04:27;;;;;;;6.63;1.37;;;9.80;90.70;;;;;;5042250;28;20383;-81
2021/05/22 10:06:52;;;;;;;11.77;1.53;;;9.90;90.00;;;;;;5043018;28;20390;-79
2021/05/22 10:09:20;;;;;;;6.17;1.40;;;10.00;88.90;;;;;;5042178;28;20715;-80
2021/05/22 10:12:04;;;;;;;5.63;1.48;;;10.10;89.90;;;;;;5043247;28;20386;-80
2021/05/22 10:14:38;;;;;;;8.57;1.60;;;10.10;90.20;;;;;;5041744;28;20419;-80
2021/05/22 10:17:06;;;;;;;4.68;1.40;;;10.30;90.50;;;;;;5041754;28;20386;-79
2021/05/22 10:19:33;;;;;;;4.37;1.20;;;10.30;90.40;;;;;;5040922;28;20723;-80
2021/05/22 10:22:00;;;;;;;6.95;1.23;;;10.30;89.00;;;;;;5043294;27;20822;-81
2021/05/22 10:24:26;;;;;;;5.10;1.10;;;10.20;89.40;;;;;;5041778;28;20383;-79
2021/05/22 10:26:53;;;;;;;6.35;1.50;;;10.10;89.10;;;;;;5030042;28;20391;-81
2021/05/22 10:29:20;;;;;;;5.05;1.27;;;10.10;88.90;;;;;;5029853;28;20399;-79
2021/05/22 10:31:46;;;;;;;7.55;1.85;;;10.10;89.90;;;;;;5030202;28;20368;-80
2021/05/22 10:34:14;;;;;;;5.57;1.50;;;10.30;90.30;;;;;;5028334;28;20482;-81
2021/05/22 10:36:58;;;;;;;6.47;1.38;;;10.20;88.50;;;;;;5029188;28;20379;-81
2021/05/22 10:39:46;;;;;;;6.90;1.25;;;10.20;89.00;;;;;;5029953;28;20375;-78
2021/05/22 10:42:20;;;;;;;5.10;1.23;;;10.30;89.90;;;;;;5028205;28;20424;-81
2021/05/22 10:44:46;;;;;;;6.95;1.35;;;10.30;88.40;;;;;;5029872;28;20394;-81
2021/05/22 10:47:14;;;;;;;5.50;1.52;;;10.40;89.90;;;;;;5028729;28;20458;-79
2021/05/22 10:49:55;;;;;;;4.45;1.30;;;10.40;88.90;;;;;;5030112;28;20394;-80
2021/05/22 10:52:31;;;;;;;3.08;1.20;;;10.30;89.50;;;;;;5028355;28;20479;-79
2021/05/22 10:54:58;;;;;;;4.88;1.50;;;10.30;88.90;;;;;;5028218;28;20412;-81
2021/05/22 10:57:24;;;;;;;6.47;1.67;;;10.40;89.00;;;;;;5029372;28;20440;-81
2021/05/22 11:00:19;;;;;;;8.77;1.90;;;10.40;89.40;;;;;;5029699;28;20723;-81
2021/05/22 11:02:52;;;;;;;9.02;1.60;;;10.20;89.70;;;;;;5030166;28;20973;-82
2021/05/22 11:05:21;;;;;;;7.75;1.70;;;10.30;90.40;;;;;;5029521;28;20396;-80
2021/05/22 11:07:46;;;;;;;5.63;1.50;;;10.30;91.30;;;;;;5029288;28;20391;-82
2021/05/22 11:10:35;;;;;;;9.37;1.57;;;10.30;90.80;;;;;;5029070;28;20832;-82
2021/05/22 11:13:01;;;;;;;5.38;1.38;;;10.40;90.00;;;;;;5029429;28;20470;-80
2021/05/22 11:15:45;;;;;;;6.72;1.48;;;10.40;90.20;;;;;;5029623;28;20873;-82
2021/05/22 11:18:12;;;;;;;10.73;2.03;;;10.40;90.80;;;;;;5028573;28;20443;-83
2021/05/22 11:20:39;;;;;;;8.02;1.70;;;10.40;90.80;;;;;;5028086;28;20387;-82
2021/05/22 11:23:05;;;;;;;3.30;1.30;;;10.40;91.60;;;;;;5029050;28;20835;-81
2021/05/22 11:25:52;;;;;;;4.30;1.33;;;10.40;91.00;;;;;;5029416;28;20385;-83
2021/05/22 11:28:20;;;;;;;11.75;1.92;;;10.40;91.60;;;;;;5027492;28;20419;-82
2021/05/22 11:30:55;;;;;;;4.50;1.60;;;10.40;91.90;;;;;;5028895;28;20452;-83
2021/05/22 11:33:23;;;;;;;5.53;1.35;;;10.30;92.20;;;;;;5029219;28;20380;-83
2021/05/22 11:35:57;;;;;;;9.85;2.28;;;10.30;91.20;;;;;;5027712;28;20400;-81
2021/05/22 11:38:23;;;;;;;6.32;1.70;;;10.40;91.70;;;;;;5026258;28;20437;-82
2021/05/22 11:40:49;;;;;;;4.40;1.45;;;10.60;92.30;;;;;;5028792;28;20392;-81
2021/05/22 11:45:45;;;;;;;6.63;1.50;;;10.50;92.20;;;;;;5028698;28;20387;-81
2021/05/22 11:48:29;;;;;;;4.65;2.00;;;10.70;92.30;;;;;;5027319;28;20484;-81
2021/05/22 11:50:57;;;;;;;7.72;1.85;;;10.60;90.90;;;;;;5028787;28;20716;-81
2021/05/22 11:53:27;;;;;;;4.53;1.23;;;10.60;91.60;;;;;;5028464;28;20383;-79
2021/05/22 11:56:00;;;;;;;12.27;1.75;;;10.50;91.00;;;;;;5029055;28;20414;-81
2021/05/22 11:58:26;;;;;;;9.25;1.73;;;10.60;91.40;;;;;;5026671;28;20383;-81
2021/05/22 12:00:54;;;;;;;10.57;2.65;;;10.50;90.70;;;;;;5028575;28;20871;-81
2021/05/22 12:03:27;;;;;;;9.02;1.88;;;10.50;91.30;;;;;;5027047;28;20406;-83
2021/05/22 12:05:54;;;;;;;12.17;1.80;;;10.60;90.40;;;;;;5028343;28;20391;-81
2021/05/22 12:08:28;;;;;;;15.38;1.67;;;10.60;90.70;;;;;;5027950;28;20387;-81
2021/05/22 12:10:54;;;;;;;12.38;2.00;;;10.60;90.50;;;;;;5028040;28;20413;-81
2021/05/22 12:13:20;;;;;;;8.95;2.17;;;10.60;90.90;;;;;;5026890;28;20443;-80
2021/05/22 12:15:47;;;;;;;9.13;2.03;;;10.50;90.80;;;;;;5025686;28;20411;-79
2021/05/22 12:18:15;;;;;;;10.05;1.90;;;10.40;90.70;;;;;;5028000;28;20466;-82
2021/05/22 12:20:49;;;;;;;9.80;2.10;;;10.40;90.40;;;;;;5027840;28;20404;-81
2021/05/22 12:23:28;;;;;;;10.73;2.20;;;10.40;90.80;;;;;;5113978;27;20461;-81
2021/05/22 12:25:55;;;;;;;8.05;2.00;;;10.40;90.80;;;;;;5027233;28;20387;-79
2021/05/22 12:28:22;;;;;;;6.68;1.83;;;10.40;91.00;;;;;;5027872;28;20851;-79
2021/05/22 12:30:50;;;;;;;7.17;2.00;;;10.40;91.10;;;;;;5026502;28;20392;-80
2021/05/22 12:33:17;;;;;;;9.05;2.00;;;10.40;90.90;;;;;;5028213;28;20384;-82
2021/05/22 12:35:48;;;;;;;7.38;1.88;;;10.50;89.70;;;;;;5027537;28;20495;-80
2021/05/22 12:38:15;;;;;;;8.70;1.73;;;10.60;89.00;;;;;;5024557;28;20375;-81
2021/05/22 12:40:48;;;;;;;6.32;1.83;;;10.70;89.70;;;;;;5027982;28;20386;-80
2021/05/22 12:43:15;;;;;;;7.60;2.60;;;10.70;89.20;;;;;;5112767;27;20478;-80
2021/05/22 12:45:43;;;;;;;9.55;1.70;;;10.80;89.80;;;;;;5027433;28;20395;-79
2021/05/22 12:48:22;;;;;;;7.55;2.00;;;10.80;89.30;;;;;;5024035;28;20937;-80
2021/05/22 12:50:48;;;;;;;6.28;1.52;;;10.90;88.60;;;;;;5027435;28;20392;-80
2021/05/22 12:53:26;;;;;;;5.65;1.70;;;10.90;88.70;;;;;;5027519;28;20384;-79
2021/05/22 12:56:02;;;;;;;6.47;2.00;;;11.00;89.10;;;;;;5026638;28;20490;-78
2021/05/22 12:58:28;;;;;;;8.33;1.70;;;11.10;90.00;;;;;;5027485;28;20469;-78
2021/05/22 13:00:54;;;;;;;5.10;1.90;;;10.90;89.10;;;;;;5026128;28;20380;-80
2021/05/22 13:03:43;;;;;;;8.38;2.10;;;10.90;88.70;;;;;;5027601;28;20541;-82
2021/05/22 13:06:11;;;;;;;9.52;1.95;;;10.90;89.90;;;;;;5027485;28;20383;-80
2021/05/22 13:08:36;;;;;;;8.23;2.00;;;11.10;90.70;;;;;;5027164;28;20387;-80
2021/05/22 13:11:10;;;;;;;7.90;1.80;;;11.00;90.20;;;;;;5026034;28;20395;-81
2021/05/22 13:13:36;;;;;;;8.07;2.00;;;10.80;91.10;;;;;;5027363;28;20387;-83
2021/05/22 13:16:11;;;;;;;8.00;2.20;;;10.70;91.60;;;;;;5026620;28;20398;-82
2021/05/22 13:18:41;;;;;;;11.68;3.20;;;10.80;92.60;;;;;;5022330;28;20418;-82
2021/05/22 13:21:14;;;;;;;7.25;2.13;;;10.80;92.40;;;;;;5026255;28;20903;-82
2021/05/22 13:23:44;;;;;;;10.57;2.47;;;10.80;92.00;;;;;;5025006;28;20448;-81
2021/05/22 13:26:20;;;;;;;6.85;2.45;;;10.80;91.80;;;;;;5026586;28;20379;-80
2021/05/22 13:28:50;;;;;;;10.45;3.13;;;10.80;93.50;;;;;;5025669;28;20886;-83
2021/05/22 13:31:29;;;;;;;13.82;2.67;;;10.80;93.20;;;;;;5026630;28;20845;-81
2021/05/22 13:34:00;;;;;;;10.90;2.70;;;10.80;93.90;;;;;;5024779;28;20976;-82
2021/05/22 13:36:26;;;;;;;12.82;2.20;;;10.70;93.30;;;;;;5024964;28;20398;-81
2021/05/22 13:38:53;;;;;;;10.55;2.67;;;10.60;93.80;;;;;;5024669;28;20400;-82
2021/05/22 13:41:29;;;;;;;10.40;2.65;;;10.50;93.50;;;;;;5024218;28;20406;-82
2021/05/22 13:43:55;;;;;;;10.85;2.60;;;10.50;93.50;;;;;;5024956;28;20391;-81
2021/05/22 13:46:21;;;;;;;11.45;2.72;;;10.50;93.70;;;;;;5025270;28;20384;-80
2021/05/22 13:48:46;;;;;;;8.63;2.08;;;10.40;93.20;;;;;;5026036;28;20383;-82
2021/05/22 13:51:12;;;;;;;9.38;2.55;;;10.50;92.80;;;;;;5025558;28;20379;-82
2021/05/22 13:53:38;;;;;;;12.82;2.40;;;10.40;93.60;;;;;;5025026;28;20762;-84
2021/05/22 13:56:04;;;;;;;8.70;2.63;;;10.40;93.50;;;;;;5024507;28;20701;-86
2021/05/22 13:58:29;;;;;;;13.27;3.08;;;10.30;94.00;;;;;;5024622;28;20422;-84
2021/05/22 14:00:55;;;;;;;8.30;2.57;;;10.40;94.40;;;;;;5025609;28;20506;-82
2021/05/22 14:03:21;;;;;;;10.67;3.40;;;10.40;93.60;;;;;;5027045;28;20394;-82
2021/05/22 14:05:46;;;;;;;12.87;2.30;;;10.50;94.10;;;;;;5027264;28;20383;-83
2021/05/22 14:08:12;;;;;;;11.73;2.20;;;10.50;93.40;;;;;;5027233;28;20384;-82
2021/05/22 14:10:37;;;;;;;7.22;1.83;;;10.60;93.30;;;;;;5028050;28;20383;-80
2021/05/22 14:13:03;;;;;;;7.47;2.08;;;10.60;93.40;;;;;;5029090;28;20391;-82
2021/05/22 14:15:29;;;;;;;11.85;2.47;;;10.60;93.80;;;;;;5028451;28;20517;-82
2021/05/22 14:17:57;;;;;;;6.53;1.85;;;10.70;93.80;;;;;;5026571;28;20394;-82
2021/05/22 14:20:25;;;;;;;8.43;2.10;;;10.50;93.50;;;;;;5028875;28;20388;-80
2021/05/22 14:22:51;;;;;;;7.05;2.20;;;10.60;93.50;;;;;;5026993;28;20803;-80
2021/05/22 14:25:24;;;;;;;5.05;1.67;;;10.40;92.50;;;;;;5028601;28;20414;-81
2021/05/22 14:27:50;;;;;;;10.45;1.75;;;10.40;92.30;;;;;;5025312;28;20410;-80
2021/05/22 14:30:17;;;;;;;7.53;2.03;;;10.40;93.10;;;;;;5028668;28;20388;-81
2021/05/22 14:32:43;;;;;;;9.20;2.50;;;10.40;93.40;;;;;;5027239;28;20399;-81
2021/05/22 14:35:11;;;;;;;8.07;2.30;;;10.40;92.40;;;;;;5024968;28;20418;-80
2021/05/22 14:37:37;;;;;;;4.82;1.77;;;10.40;93.30;;;;;;5113525;27;20429;-81
2021/05/22 14:40:06;;;;;;;6.25;1.80;;;10.50;93.40;;;;;;5026683;28;20494;-80
2021/05/22 14:42:32;;;;;;;5.35;1.67;;;10.60;92.70;;;;;;5025838;28;20384;-80
2021/05/22 14:44:57;;;;;;;5.32;1.73;;;10.50;93.00;;;;;;5023860;28;20383;-80
2021/05/22 14:47:23;;;;;;;7.03;1.90;;;10.50;93.20;;;;;;5027730;28;20930;-80
2021/05/22 14:49:49;;;;;;;5.30;1.60;;;10.50;93.70;;;;;;5028099;28;20380;-81
2021/05/22 14:52:14;;;;;;;6.87;1.73;;;10.40;93.00;;;;;;5028379;28;20384;-81
2021/05/22 14:54:41;;;;;;;6.30;1.88;;;10.40;93.60;;;;;;5027676;28;20419;-82
2021/05/22 14:57:08;;;;;;;8.88;1.60;;;10.40;93.30;;;;;;5027742;28;20835;-85
2021/05/22 14:59:34;;;;;;;11.33;2.90;;;10.30;93.40;;;;;;5028132;28;20443;-84
2021/05/22 15:02:00;;;;;;;7.28;2.03;;;10.40;93.50;;;;;;5027659;28;20849;-81
2021/05/22 15:04:25;;;;;;;6.40;2.07;;;10.30;93.60;;;;;;5027494;28;20887;-83
2021/05/22 15:06:51;;;;;;;7.47;1.70;;;10.20;93.70;;;;;;5027103;28;20383;-83
2021/05/22 15:09:17;;;;;;;7.20;2.42;;;10.30;93.60;;;;;;5027921;28;20387;-83
2021/05/22 15:11:42;;;;;;;7.93;2.13;;;10.20;93.60;;;;;;5027720;28;20387;-83
2021/05/22 15:14:08;;;;;;;8.55;1.80;;;10.10;94.20;;;;;;5026905;28;20574;-81
2021/05/22 15:16:34;;;;;;;7.63;2.00;;;10.20;93.80;;;;;;5026943;28;20387;-82
2021/05/22 15:18:59;;;;;;;5.47;1.90;;;10.10;94.50;;;;;;5027493;28;20382;-84
2021/05/22 15:21:25;;;;;;;6.50;1.97;;;10.20;94.50;;;;;;5027685;28;20375;-82
2021/05/22 15:23:51;;;;;;;6.70;1.90;;;10.20;95.00;;;;;;5027727;28;20394;-84
2021/05/22 15:26:16;;;;;;;5.23;2.13;;;10.10;94.70;;;;;;5112526;27;21381;-83
2021/05/22 15:28:43;;;;;;;5.63;1.87;;;10.10;94.30;;;;;;5026149;28;20411;-83
2021/05/22 15:31:11;;;;;;;6.97;2.67;;;10.10;95.10;;;;;;5027513;28;20379;-82
2021/05/22 15:33:39;;;;;;;7.35;2.60;;;10.10;94.50;;;;;;5026604;28;20942;-82
2021/05/22 15:36:05;;;;;;;10.73;2.20;;;10.10;94.60;;;;;;5113554;27;20774;-83
2021/05/22 15:38:34;;;;;;;5.32;2.15;;;10.10;94.50;;;;;;5027806;28;20420;-83
2021/05/22 15:41:02;;;;;;;5.28;2.47;;;10.20;94.90;;;;;;5112483;27;20403;-83
2021/05/22 15:43:28;;;;;;;2.83;1.65;;;10.10;94.40;;;;;;5027339;28;20380;-82
2021/05/22 15:45:54;;;;;;;3.45;1.73;;;10.10;93.90;;;;;;5028232;28;20376;-82
2021/05/22 15:49:06;;;;;;;5.07;2.20;;;10.00;94.30;;;;;;5112222;27;20394;-81
2021/05/22 15:59:21;;;;;;;4.90;2.00;;;10.00;94.60;;;;;;5028464;28;20387;-86
2021/05/22 16:07:10;;;;;;;3.95;2.05;;;10.10;95.00;;;;;;5038692;28;20769;-81
2021/05/22 16:09:36;;;;;;;6.47;2.20;;;10.10;94.50;;;;;;5111416;27;20391;-81
2021/05/22 16:12:02;;;;;;;4.40;3.20;;;10.20;94.80;;;;;;5026850;28;20376;-82
2021/05/22 16:14:28;;;;;;;5.80;1.85;;;10.10;94.30;;;;;;5111848;27;20463;-81
2021/05/22 16:16:55;;;;;;;3.00;2.20;;;9.90;93.50;;;;;;5027312;28;20792;-83
2021/05/22 16:19:21;;;;;;;3.97;2.43;;;9.90;94.20;;;;;;5027044;28;20465;-80
2021/05/22 16:21:47;;;;;;;3.63;2.00;;;10.00;94.50;;;;;;5028448;28;20462;-81
2021/05/22 16:24:13;;;;;;;5.22;2.20;;;10.00;94.60;;;;;;5027599;28;20391;-81
2021/05/22 16:26:41;;;;;;;6.13;2.10;;;10.00;94.30;;;;;;5027566;28;20490;-81
2021/05/22 16:29:08;;;;;;;2.40;2.08;;;10.00;94.70;;;;;;5113275;27;20391;-80
2021/05/22 16:31:34;;;;;;;3.90;2.20;;;9.90;94.70;;;;;;5028136;28;20367;-80
2021/05/22 16:34:00;;;;;;;2.60;2.20;;;9.90;94.50;;;;;;5027972;28;20410;-81
2021/05/22 16:36:25;;;;;;;3.38;2.25;;;10.00;94.70;;;;;;5027672;28;20375;-81
2021/05/22 16:38:51;;;;;;;3.47;2.33;;;10.00;94.30;;;;;;5028077;28;20375;-81
2021/05/22 16:41:18;;;;;;;2.43;2.23;;;10.00;94.10;;;;;;5027684;28;20389;-82
2021/05/22 16:43:44;;;;;;;2.83;2.10;;;10.10;94.30;;;;;;5113473;27;20419;-81
2021/05/22 16:46:09;;;;;;;4.03;2.13;;;10.10;94.30;;;;;;5027603;28;20422;-81
2021/05/22 16:48:35;;;;;;;3.75;2.20;;;10.20;94.50;;;;;;5112882;27;20428;-81
2021/05/22 16:51:02;;;;;;;4.13;2.28;;;10.20;94.50;;;;;;5112671;27;20391;-80
2021/05/22 16:53:27;;;;;;;3.55;2.33;;;10.30;94.70;;;;;;5113370;27;20851;-80
2021/05/22 16:55:53;;;;;;;3.40;2.30;;;10.20;94.40;;;;;;5112705;27;20418;-81
2021/05/22 16:58:19;;;;;;;2.73;1.87;;;10.20;94.60;;;;;;5112553;27;20399;-80
2021/05/22 17:00:44;;;;;;;3.15;2.00;;;10.20;93.70;;;;;;5027543;28;20395;-80
2021/05/22 17:03:10;;;;;;;2.40;1.60;;;10.20;94.00;;;;;;5113039;27;20399;-80
2021/05/22 17:05:35;;;;;;;2.92;1.50;;;10.20;93.40;;;;;;5026104;28;20391;-81
2021/05/22 17:08:01;;;;;;;2.10;1.48;;;10.20;93.00;;;;;;5027192;28;20386;-80
2021/05/22 17:10:27;;;;;;;2.10;1.67;;;10.20;93.00;;;;;;5027793;28;20505;-81
2021/05/22 17:12:54;;;;;;;6.60;1.40;;;10.10;93.10;;;;;;5027675;28;20436;-80
2021/05/22 17:15:20;;;;;;;4.45;1.80;;;10.00;93.70;;;;;;5027666;28;20453;-80
2021/05/22 17:17:46;;;;;;;2.90;1.83;;;10.10;93.70;;;;;;5026877;28;20415;-80
2021/05/22 17:20:13;;;;;;;1.88;1.50;;;10.10;94.00;;;;;;5027374;28;20724;-81
2021/05/22 17:22:39;;;;;;;2.10;1.50;;;10.20;93.80;;;;;;5112715;28;20926;-80
2021/05/22 17:25:08;;;;;;;3.45;1.55;;;10.30;93.30;;;;;;5112822;28;20505;-79
2021/05/22 17:27:33;;;;;;;2.83;1.58;;;10.30;93.60;;;;;;5026665;28;20372;-80
2021/05/22 17:29:59;;;;;;;3.33;1.70;;;10.30;93.30;;;;;;5027524;28;20712;-80
2021/05/22 17:32:26;;;;;;;6.88;1.95;;;10.30;93.80;;;;;;5027064;28;20436;-75
2021/05/22 17:34:51;;;;;;;1.42;1.33;;;10.40;93.60;;;;;;5026854;28;20411;-76
2021/05/22 17:37:17;;;;;;;2.23;1.70;;;10.50;93.40;;;;;;5025734;28;20605;-75
2021/05/22 17:39:42;;;;;;;2.63;1.87;;;10.40;92.60;;;;;;5030600;28;20371;-76
2021/05/22 17:42:08;;;;;;;2.40;1.90;;;10.40;92.70;;;;;;5030737;28;20379;-80
2021/05/22 17:44:34;;;;;;;3.92;1.83;;;10.40;92.80;;;;;;5030596;28;20418;-82
2021/05/22 17:46:59;;;;;;;3.28;1.85;;;10.50;92.50;;;;;;5116253;27;20602;-75
2021/05/22 17:49:25;;;;;;;4.22;1.70;;;10.50;92.40;;;;;;5030555;28;20465;-81
2021/05/22 17:51:50;;;;;;;2.23;1.57;;;10.50;91.90;;;;;;5115993;27;20375;-81
2021/05/22 17:54:17;;;;;;;3.20;1.60;;;10.50;92.20;;;;;;5116402;27;20411;-80
2021/05/22 17:56:43;;;;;;;2.00;1.55;;;10.40;92.30;;;;;;5030379;28;20379;-78
2021/05/22 17:59:08;;;;;;;3.63;1.80;;;10.60;91.30;;;;;;5030208;28;20386;-75
2021/05/22 18:01:34;;;;;;;3.75;2.20;;;10.40;92.10;;;;;;5030763;28;20375;-84
2021/05/22 18:03:59;;;;;;;4.93;2.05;;;10.50;92.20;;;;;;5115999;27;20441;-83
2021/05/22 18:06:26;;;;;;;3.35;2.00;;;10.40;92.40;;;;;;5116088;27;20762;-77
2021/05/22 18:08:52;;;;;;;2.42;1.67;;;10.50;92.20;;;;;;5030315;28;20382;-81
2021/05/22 18:11:18;;;;;;;2.25;1.60;;;10.40;91.90;;;;;;5029994;28;20750;-78
2021/05/22 18:13:44;;;;;;;1.90;1.48;;;10.40;91.90;;;;;;5029841;28;20761;-78
2021/05/22 18:16:09;;;;;;;3.95;2.33;;;10.40;92.40;;;;;;5028406;28;20441;-79
2021/05/22 18:18:36;;;;;;;3.53;2.00;;;10.40;91.90;;;;;;5028007;28;20380;-79
2021/05/22 18:21:02;;;;;;;3.67;2.40;;;10.40;92.30;;;;;;5028078;28;20388;-79
2021/05/22 18:23:28;;;;;;;5.15;2.75;;;10.40;92.30;;;;;;5027032;28;20380;-79
2021/05/22 18:25:54;;;;;;;2.95;2.10;;;10.50;92.30;;;;;;5026698;28;20384;-80
2021/05/22 18:28:20;;;;;;;4.20;2.23;;;10.40;92.20;;;;;;5026505;28;20557;-81
2021/05/22 18:30:46;;;;;;;3.58;2.10;;;10.40;92.10;;;;;;5028263;28;20371;-80
2021/05/22 18:33:12;;;;;;;3.35;2.10;;;10.40;92.30;;;;;;5028461;28;20386;-82
2021/05/22 18:35:38;;;;;;;3.17;2.08;;;10.40;92.30;;;;;;5029671;28;20414;-83
2021/05/22 18:38:03;;;;;;;4.30;2.20;;;10.40;92.10;;;;;;5029271;28;20406;-80
2021/05/22 18:40:30;;;;;;;3.38;2.20;;;10.30;92.00;;;;;;5029822;28;20418;-80
2021/05/22 18:42:56;;;;;;;4.05;2.60;;;10.30;92.70;;;;;;5029676;28;20471;-80
2021/05/22 18:45:22;;;;;;;4.90;2.20;;;10.30;92.40;;;;;;5028638;28;20486;-80
2021/05/22 18:47:50;;;;;;;3.65;1.95;;;10.10;92.80;;;;;;5027385;28;20448;-79
2021/05/22 18:50:19;;;;;;;5.35;2.05;;;10.10;92.80;;;;;;5028484;28;20383;-80
2021/05/22 18:52:46;;;;;;;3.63;2.15;;;10.10;92.70;;;;;;5029851;28;20402;-80
2021/05/22 18:55:13;;;;;;;3.75;2.17;;;10.10;92.80;;;;;;5029714;28;20468;-80
2021/05/22 18:57:38;;;;;;;4.50;2.17;;;10.00;92.90;;;;;;5028741;28;20390;-80
2021/05/22 19:00:09;;;;;;;5.05;2.30;;;10.10;92.90;;;;;;5028016;28;20375;-79
2021/05/22 19:02:35;;;;;;;3.33;2.30;;;10.10;92.80;;;;;;5027938;28;20919;-79
2021/05/22 19:05:01;;;;;;;2.85;2.38;;;9.90;92.90;;;;;;5027846;28;20492;-80
2021/05/22 19:07:26;;;;;;;4.78;2.30;;;10.00;92.70;;;;;;5114274;27;20384;-80
2021/05/22 19:09:52;;;;;;;2.28;2.08;;;9.90;93.00;;;;;;5027068;28;20398;-80
2021/05/22 19:12:17;;;;;;;3.13;2.10;;;10.00;92.70;;;;;;5027585;28;20400;-79
2021/05/22 19:14:44;;;;;;;2.50;1.83;;;10.00;92.90;;;;;;5028459;28;20419;-81
2021/05/22 19:17:11;;;;;;;4.50;2.20;;;10.10;92.50;;;;;;5028603;28;20379;-78
2021/05/22 19:19:37;;;;;;;3.40;2.47;;;10.10;92.70;;;;;;5026907;28;20399;-79
2021/05/22 19:22:04;;;;;;;5.17;2.47;;;10.00;92.80;;;;;;5114151;27;20448;-80
2021/05/22 19:24:30;;;;;;;5.60;2.60;;;10.00;92.80;;;;;;5113798;27;20391;-78
2021/05/22 19:26:56;;;;;;;4.78;2.60;;;10.00;92.90;;;;;;5027947;28;20379;-78
2021/05/22 19:29:22;;;;;;;9.40;3.27;;;10.00;93.00;;;;;;5027255;28;20391;-80
2021/05/22 19:31:48;;;;;;;6.37;3.03;;;10.00;93.00;;;;;;5028026;28;20379;-81
2021/05/22 19:34:13;;;;;;;4.60;2.33;;;10.00;93.00;;;;;;5113792;27;20407;-79
2021/05/22 19:36:39;;;;;;;3.73;2.47;;;10.00;93.30;;;;;;5027276;28;21016;-78
2021/05/22 19:39:08;;;;;;;11.37;3.10;;;10.00;93.10;;;;;;5027155;28;20394;-77
2021/05/22 19:41:34;;;;;;;5.47;2.53;;;10.00;93.50;;;;;;5112261;27;20864;-80
2021/05/22 19:44:00;;;;;;;5.32;2.60;;;10.00;93.30;;;;;;5028173;28;20403;-79
2021/05/22 19:46:25;;;;;;;3.17;2.10;;;10.00;93.40;;;;;;5112302;27;20387;-80
2021/05/22 19:48:51;;;;;;;4.57;2.58;;;10.00;93.30;;;;;;5028062;28;20375;-79
2021/05/22 19:51:17;;;;;;;5.30;2.92;;;10.00;93.30;;;;;;5027314;28;20379;-80
2021/05/22 19:53:47;;;;;;;4.55;2.38;;;10.00;93.30;;;;;;5112658;27;20392;-79
2021/05/22 19:56:12;;;;;;;5.45;2.50;;;10.00;93.40;;;;;;5026290;28;20777;-79
2021/05/22 19:58:38;;;;;;;5.97;2.33;;;10.00;93.40;;;;;;5026971;28;20407;-79
2021/05/22 20:01:04;;;;;;;8.27;2.63;;;9.90;93.40;;;;;;5027141;28;20482;-79
2021/05/22 20:03:30;;;;;;;3.20;2.35;;;9.90;93.30;;;;;;5027738;28;20911;-78
2021/05/22 20:05:55;;;;;;;6.05;2.83;;;9.90;93.20;;;;;;5028133;28;20387;-79
2021/05/22 20:08:21;;;;;;;4.95;2.50;;;10.00;92.80;;;;;;5027209;28;20383;-79
2021/05/22 20:10:47;;;;;;;4.78;2.30;;;10.00;92.80;;;;;;5028285;28;20405;-80
2021/05/22 20:13:15;;;;;;;4.88;2.60;;;10.00;92.90;;;;;;5027992;28;20889;-79
2021/05/22 20:15:42;;;;;;;7.47;2.70;;;9.90;93.10;;;;;;5028482;28;20813;-79
2021/05/22 20:18:07;;;;;;;5.53;2.35;;;9.90;92.90;;;;;;5027502;28;20380;-78
2021/05/22 20:20:33;;;;;;;3.53;2.30;;;10.00;93.10;;;;;;5027776;28;20536;-79
2021/05/22 20:22:59;;;;;;;4.32;2.67;;;9.90;93.30;;;;;;5027804;28;20397;-78
2021/05/22 20:25:25;;;;;;;8.05;2.38;;;9.90;93.60;;;;;;5028383;28;20380;-78
2021/05/22 20:27:51;;;;;;;4.68;2.30;;;9.90;93.10;;;;;;5027143;28;20447;-79
2021/05/22 20:30:18;;;;;;;4.43;2.38;;;9.80;93.30;;;;;;5027934;28;20731;-79
2021/05/22 20:32:45;;;;;;;5.10;2.50;;;9.90;93.30;;;;;;5027838;28;20440;-79
2021/05/22 20:35:11;;;;;;;5.45;3.03;;;9.90;93.40;;;;;;5026745;28;20897;-79
2021/05/22 20:37:37;;;;;;;4.72;2.33;;;9.90;93.60;;;;;;5027355;28;20893;-80
2021/05/22 20:40:06;;;;;;;3.92;1.85;;;9.80;93.30;;;;;;5025751;28;20388;-79
2021/05/22 20:42:32;;;;;;;4.13;2.72;;;9.80;93.60;;;;;;5026647;28;20466;-79
2021/05/22 20:44:57;;;;;;;4.43;2.00;;;9.90;93.30;;;;;;5025815;28;20506;-79
2021/05/22 20:47:23;;;;;;;9.33;2.33;;;9.90;93.30;;;;;;5025545;28;20379;-79
2021/05/22 20:49:48;;;;;;;3.60;2.00;;;9.80;93.40;;;;;;5027516;28;20770;-79
2021/05/22 20:52:15;;;;;;;4.82;1.95;;;9.90;93.30;;;;;;5027459;28;20492;-79
2021/05/22 20:54:42;;;;;;;3.72;2.10;;;9.90;93.20;;;;;;5027345;28;20732;-79
2021/05/22 20:57:08;;;;;;;3.85;2.70;;;9.80;93.50;;;;;;5027088;28;20769;-79
2021/05/22 20:59:34;;;;;;;3.65;2.30;;;9.90;93.70;;;;;;5027049;28;20379;-78
2021/05/22 21:02:00;;;;;;;6.33;2.70;;;9.90;93.70;;;;;;5027371;28;20407;-78
2021/05/22 21:04:26;;;;;;;5.67;3.07;;;9.90;93.60;;;;;;5027442;28;20386;-80
2021/05/22 21:06:52;;;;;;;7.82;3.10;;;9.80;94.50;;;;;;5025612;28;20386;-83
2021/05/22 21:09:18;;;;;;;8.90;3.67;;;9.70;95.30;;;;;;5025104;28;20492;-81
2021/05/22 21:11:47;;;;;;;7.23;3.53;;;9.60;95.80;;;;;;5026031;28;20509;-82
2021/05/22 21:14:15;;;;;;;7.18;3.20;;;9.60;95.90;;;;;;5024613;28;20415;-81
2021/05/22 21:16:42;;;;;;;3.75;2.60;;;9.70;95.50;;;;;;5111027;28;20486;-80
2021/05/22 21:19:08;;;;;;;4.03;2.40;;;9.50;95.30;;;;;;5112747;28;20870;-82
2021/05/22 21:21:33;;;;;;;4.07;2.80;;;9.40;95.70;;;;;;5027031;28;20380;-82
2021/05/22 21:23:59;;;;;;;5.10;2.65;;;9.40;95.80;;;;;;5027451;28;20375;-82
2021/05/22 21:26:25;;;;;;;6.43;2.80;;;9.40;96.00;;;;;;5026712;28;20380;-82
2021/05/22 21:28:52;;;;;;;6.55;3.00;;;9.50;96.00;;;;;;5026974;28;20462;-81
2021/05/22 21:31:17;;;;;;;3.65;2.60;;;9.40;96.20;;;;;;5027112;28;20708;-81
2021/05/22 21:33:43;;;;;;;4.20;2.80;;;9.40;96.20;;;;;;5112558;28;20380;-81
2021/05/22 21:36:09;;;;;;;11.95;3.83;;;9.40;96.50;;;;;;5112103;28;20419;-81
2021/05/22 21:38:35;;;;;;;6.03;3.10;;;9.30;96.60;;;;;;5026641;28;20438;-82
2021/05/22 21:41:01;;;;;;;6.63;3.30;;;9.30;96.60;;;;;;5027107;28;20375;-81
2021/05/22 21:43:27;;;;;;;5.88;3.55;;;9.30;96.60;;;;;;5026361;28;20375;-82
2021/05/22 21:45:53;;;;;;;5.95;3.33;;;9.30;96.50;;;;;;5026927;28;20385;-82
2021/05/22 21:48:18;;;;;;;6.40;3.22;;;9.30;96.50;;;;;;5111462;28;20403;-81
2021/05/22 21:50:44;;;;;;;5.93;3.40;;;9.40;96.50;;;;;;5111897;28;20475;-81
2021/05/22 21:53:10;;;;;;;8.18;3.83;;;9.40;96.50;;;;;;5025964;28;20376;-81
2021/05/22 21:55:36;;;;;;;10.20;3.42;;;9.40;96.50;;;;;;5025536;28;20407;-81
2021/05/22 21:58:04;;;;;;;8.68;3.65;;;9.40;96.40;;;;;;5024922;28;20393;-81
2021/05/22 22:00:49;;;;;;;7.55;3.50;;;9.40;96.40;;;;;;5025833;28;20574;-80
2021/05/22 22:03:28;;;;;;;5.57;3.90;;;9.40;96.10;;;;;;5024923;28;20828;-81
2021/05/22 22:05:57;;;;;;;8.18;3.55;;;9.40;96.20;;;;;;5026171;28;20387;-80
2021/05/22 22:08:24;;;;;;;6.40;3.10;;;9.50;95.80;;;;;;5024853;28;20829;-81
2021/05/22 22:10:51;;;;;;;8.20;3.17;;;9.60;95.60;;;;;;5025245;28;20383;-80
2021/05/22 22:13:18;;;;;;;7.83;3.77;;;9.70;95.00;;;;;;5025432;28;20390;-81
2021/05/22 22:15:46;;;;;;;7.30;3.50;;;9.70;95.00;;;;;;5025199;28;20415;-80
2021/05/22 22:18:12;;;;;;;7.13;3.85;;;9.60;95.10;;;;;;5025799;28;20540;-80
2021/05/22 22:20:43;;;;;;;5.93;3.78;;;9.70;95.10;;;;;;5025313;28;20891;-80
2021/05/22 22:23:09;;;;;;;4.90;3.45;;;9.70;94.80;;;;;;5027957;28;20416;-80